sensor_id;sensor_type;location;lat;lon;timestamp;P1;durP1;ratioP1;P2;durP2;ratioP2
44893;SDS011;30625;52.206;21.030;2023-03-04T00:01:24;30.98;;;14.23;;
44893;SDS011;30625;52.206;21.030;2023-03-04T00:03:50;31.58;;;13.48;;
44893;SDS011;30625;52.206;21.030;2023-03-04T00:06:15;34.50;;;14.40;;
44893;SDS011;30625;52.206;21.030;2023-03-04T00:08:41;33.40;;;13.70;;
44893;SDS011;30625;52.206;21.030;2023-03-04T00:11:06;30.13;;;14.15;;
44893;SDS011;30625;52.206;21.030;2023-03-04T00:13:32;32.20;;;14.50;;
44893;SDS011;30625;52.206;21.030;2023-03-04T00:15:58;33.38;;;14.32;;
44893;SDS011;30625;52.206;21.030;2023-03-04T00:18:23;31.15;;;14.27;;
44893;SDS011;30625;52.206;21.030;2023-03-04T00:20:49;31.73;;;13.60;;
44893;SDS011;30625;52.206;21.030;2023-03-04T00:23:15;26.52;;;12.43;;
44893;SDS011;30625;52.206;21.030;2023-03-04T00:28:06;30.77;;;13.52;;
44893;SDS011;30625;52.206;21.030;2023-03-04T00:30:32;33.05;;;15.77;;
44893;SDS011;30625;52.206;21.030;2023-03-04T00:32:58;28.08;;;13.20;;
44893;SDS011;30625;52.206;21.030;2023-03-04T00:35:23;34.35;;;15.48;;
44893;SDS011;30625;52.206;21.030;2023-03-04T00:37:49;30.05;;;14.02;;
44893;SDS011;30625;52.206;21.030;2023-03-04T00:40:14;37.80;;;14.85;;
44893;SDS011;30625;52.206;21.030;2023-03-04T00:42:40;33.95;;;15.43;;
44893;SDS011;30625;52.206;21.030;2023-03-04T00:45:07;42.47;;;15.70;;
44893;SDS011;30625;52.206;21.030;2023-03-04T00:47:33;37.17;;;15.48;;
44893;SDS011;30625;52.206;21.030;2023-03-04T00:49:59;34.97;;;16.98;;
44893;SDS011;30625;52.206;21.030;2023-03-04T00:52:25;37.70;;;14.05;;
44893;SDS011;30625;52.206;21.030;2023-03-04T00:54:50;40.83;;;16.42;;
44893;SDS011;30625;52.206;21.030;2023-03-04T00:57:16;41.80;;;16.60;;
44893;SDS011;30625;52.206;21.030;2023-03-04T00:59:41;42.65;;;17.15;;
44893;SDS011;30625;52.206;21.030;2023-03-04T01:02:08;39.92;;;15.30;;
44893;SDS011;30625;52.206;21.030;2023-03-04T01:04:34;40.85;;;16.90;;
44893;SDS011;30625;52.206;21.030;2023-03-04T01:07:00;37.20;;;14.77;;
44893;SDS011;30625;52.206;21.030;2023-03-04T01:09:25;45.42;;;17.08;;
44893;SDS011;30625;52.206;21.030;2023-03-04T01:11:51;45.42;;;16.75;;
44893;SDS011;30625;52.206;21.030;2023-03-04T01:14:17;40.80;;;15.73;;
44893;SDS011;30625;52.206;21.030;2023-03-04T01:16:43;43.53;;;17.95;;
44893;SDS011;30625;52.206;21.030;2023-03-04T01:19:08;43.85;;;17.38;;
44893;SDS011;30625;52.206;21.030;2023-03-04T01:21:34;42.53;;;18.23;;
44893;SDS011;30625;52.206;21.030;2023-03-04T01:24:00;49.45;;;19.67;;
44893;SDS011;30625;52.206;21.030;2023-03-04T01:26:25;42.58;;;17.20;;
44893;SDS011;30625;52.206;21.030;2023-03-04T01:28:51;42.92;;;18.25;;
44893;SDS011;30625;52.206;21.030;2023-03-04T01:31:17;46.58;;;16.88;;
44893;SDS011;30625;52.206;21.030;2023-03-04T01:33:42;44.88;;;16.13;;
44893;SDS011;30625;52.206;21.030;2023-03-04T01:36:08;41.58;;;18.02;;
44893;SDS011;30625;52.206;21.030;2023-03-04T01:38:33;42.05;;;16.55;;
44893;SDS011;30625;52.206;21.030;2023-03-04T01:40:59;39.40;;;14.55;;
44893;SDS011;30625;52.206;21.030;2023-03-04T01:43:26;42.00;;;16.23;;
44893;SDS011;30625;52.206;21.030;2023-03-04T01:45:53;44.55;;;17.77;;
44893;SDS011;30625;52.206;21.030;2023-03-04T01:48:21;49.67;;;19.00;;
44893;SDS011;30625;52.206;21.030;2023-03-04T01:50:50;52.58;;;18.23;;
44893;SDS011;30625;52.206;21.030;2023-03-04T01:53:18;46.65;;;19.02;;
44893;SDS011;30625;52.206;21.030;2023-03-04T01:55:47;43.45;;;17.38;;
44893;SDS011;30625;52.206;21.030;2023-03-04T01:58:13;47.00;;;17.90;;
44893;SDS011;30625;52.206;21.030;2023-03-04T02:00:39;44.85;;;18.95;;
44893;SDS011;30625;52.206;21.030;2023-03-04T02:03:09;42.88;;;19.35;;
44893;SDS011;30625;52.206;21.030;2023-03-04T02:05:38;43.13;;;18.50;;
44893;SDS011;30625;52.206;21.030;2023-03-04T02:08:06;41.95;;;16.80;;
44893;SDS011;30625;52.206;21.030;2023-03-04T02:12:59;42.22;;;14.73;;
44893;SDS011;30625;52.206;21.030;2023-03-04T02:15:26;44.83;;;15.73;;
44893;SDS011;30625;52.206;21.030;2023-03-04T02:17:52;38.42;;;15.40;;
44893;SDS011;30625;52.206;21.030;2023-03-04T02:20:24;44.33;;;16.23;;
44893;SDS011;30625;52.206;21.030;2023-03-04T02:25:30;41.03;;;15.93;;
44893;SDS011;30625;52.206;21.030;2023-03-04T02:28:01;37.60;;;15.93;;
44893;SDS011;30625;52.206;21.030;2023-03-04T02:30:26;36.60;;;14.40;;
44893;SDS011;30625;52.206;21.030;2023-03-04T02:32:52;41.67;;;15.80;;
44893;SDS011;30625;52.206;21.030;2023-03-04T02:35:18;35.97;;;15.02;;
44893;SDS011;30625;52.206;21.030;2023-03-04T02:37:45;39.35;;;15.95;;
44893;SDS011;30625;52.206;21.030;2023-03-04T02:40:15;36.40;;;16.05;;
44893;SDS011;30625;52.206;21.030;2023-03-04T02:42:48;41.42;;;16.08;;
44893;SDS011;30625;52.206;21.030;2023-03-04T02:45:29;35.47;;;14.95;;
44893;SDS011;30625;52.206;21.030;2023-03-04T02:47:58;36.53;;;16.27;;
44893;SDS011;30625;52.206;21.030;2023-03-04T02:50:23;40.80;;;16.88;;
44893;SDS011;30625;52.206;21.030;2023-03-04T02:52:52;44.17;;;16.05;;
44893;SDS011;30625;52.206;21.030;2023-03-04T02:55:17;36.75;;;14.88;;
44893;SDS011;30625;52.206;21.030;2023-03-04T02:57:43;35.83;;;15.27;;
44893;SDS011;30625;52.206;21.030;2023-03-04T03:00:08;42.13;;;16.83;;
44893;SDS011;30625;52.206;21.030;2023-03-04T03:05:00;45.25;;;17.23;;
44893;SDS011;30625;52.206;21.030;2023-03-04T03:07:26;38.45;;;15.23;;
44893;SDS011;30625;52.206;21.030;2023-03-04T03:09:51;39.55;;;15.65;;
44893;SDS011;30625;52.206;21.030;2023-03-04T03:12:17;39.28;;;16.88;;
44893;SDS011;30625;52.206;21.030;2023-03-04T03:14:42;39.05;;;16.48;;
44893;SDS011;30625;52.206;21.030;2023-03-04T03:17:08;38.63;;;17.55;;
44893;SDS011;30625;52.206;21.030;2023-03-04T03:19:34;41.05;;;17.45;;
44893;SDS011;30625;52.206;21.030;2023-03-04T03:22:00;40.05;;;17.75;;
44893;SDS011;30625;52.206;21.030;2023-03-04T03:24:25;38.60;;;16.30;;
44893;SDS011;30625;52.206;21.030;2023-03-04T03:26:51;39.15;;;17.25;;
44893;SDS011;30625;52.206;21.030;2023-03-04T03:29:16;41.83;;;17.90;;
44893;SDS011;30625;52.206;21.030;2023-03-04T03:31:42;37.72;;;16.35;;
44893;SDS011;30625;52.206;21.030;2023-03-04T03:34:08;40.30;;;17.52;;
44893;SDS011;30625;52.206;21.030;2023-03-04T03:36:33;37.55;;;16.48;;
44893;SDS011;30625;52.206;21.030;2023-03-04T03:38:59;43.08;;;18.70;;
44893;SDS011;30625;52.206;21.030;2023-03-04T03:41:24;41.85;;;17.17;;
44893;SDS011;30625;52.206;21.030;2023-03-04T03:43:50;37.03;;;15.85;;
44893;SDS011;30625;52.206;21.030;2023-03-04T03:46:15;39.92;;;16.45;;
44893;SDS011;30625;52.206;21.030;2023-03-04T03:48:41;39.53;;;17.85;;
44893;SDS011;30625;52.206;21.030;2023-03-04T03:51:06;34.67;;;16.67;;
44893;SDS011;30625;52.206;21.030;2023-03-04T03:53:32;41.50;;;17.35;;
44893;SDS011;30625;52.206;21.030;2023-03-04T03:55:58;42.67;;;17.67;;
44893;SDS011;30625;52.206;21.030;2023-03-04T03:58:23;39.20;;;16.92;;
44893;SDS011;30625;52.206;21.030;2023-03-04T04:00:50;37.42;;;17.40;;
44893;SDS011;30625;52.206;21.030;2023-03-04T04:03:16;37.05;;;15.93;;
44893;SDS011;30625;52.206;21.030;2023-03-04T04:05:42;38.60;;;16.70;;
44893;SDS011;30625;52.206;21.030;2023-03-04T04:08:12;40.53;;;17.63;;
44893;SDS011;30625;52.206;21.030;2023-03-04T04:10:38;32.95;;;16.23;;
44893;SDS011;30625;52.206;21.030;2023-03-04T04:15:30;38.70;;;16.77;;
44893;SDS011;30625;52.206;21.030;2023-03-04T04:17:55;44.33;;;17.13;;
44893;SDS011;30625;52.206;21.030;2023-03-04T04:20:21;33.58;;;15.30;;
44893;SDS011;30625;52.206;21.030;2023-03-04T04:25:13;41.92;;;17.70;;
44893;SDS011;30625;52.206;21.030;2023-03-04T04:27:38;37.33;;;17.08;;
44893;SDS011;30625;52.206;21.030;2023-03-04T04:30:04;36.05;;;15.82;;
44893;SDS011;30625;52.206;21.030;2023-03-04T04:34:56;39.90;;;15.52;;
44893;SDS011;30625;52.206;21.030;2023-03-04T04:37:21;40.15;;;17.65;;
44893;SDS011;30625;52.206;21.030;2023-03-04T04:39:47;30.17;;;13.63;;
44893;SDS011;30625;52.206;21.030;2023-03-04T04:42:12;35.60;;;16.00;;
44893;SDS011;30625;52.206;21.030;2023-03-04T04:44:38;35.38;;;17.45;;
44893;SDS011;30625;52.206;21.030;2023-03-04T04:47:04;35.72;;;16.65;;
44893;SDS011;30625;52.206;21.030;2023-03-04T04:49:31;32.55;;;15.20;;
44893;SDS011;30625;52.206;21.030;2023-03-04T04:51:56;39.55;;;16.55;;
44893;SDS011;30625;52.206;21.030;2023-03-04T04:54:25;32.10;;;15.63;;
44893;SDS011;30625;52.206;21.030;2023-03-04T04:56:51;35.80;;;14.73;;
44893;SDS011;30625;52.206;21.030;2023-03-04T04:59:16;34.65;;;15.30;;
44893;SDS011;30625;52.206;21.030;2023-03-04T05:01:42;35.97;;;16.17;;
44893;SDS011;30625;52.206;21.030;2023-03-04T05:04:08;29.88;;;14.98;;
44893;SDS011;30625;52.206;21.030;2023-03-04T05:06:33;39.10;;;16.58;;
44893;SDS011;30625;52.206;21.030;2023-03-04T05:08:59;38.38;;;15.98;;
44893;SDS011;30625;52.206;21.030;2023-03-04T05:11:26;36.22;;;14.93;;
44893;SDS011;30625;52.206;21.030;2023-03-04T05:13:51;32.90;;;15.55;;
44893;SDS011;30625;52.206;21.030;2023-03-04T05:16:17;35.10;;;16.00;;
44893;SDS011;30625;52.206;21.030;2023-03-04T05:18:43;30.42;;;14.07;;
44893;SDS011;30625;52.206;21.030;2023-03-04T05:21:09;29.50;;;14.18;;
44893;SDS011;30625;52.206;21.030;2023-03-04T05:23:36;35.35;;;15.20;;
44893;SDS011;30625;52.206;21.030;2023-03-04T05:26:04;33.13;;;14.80;;
44893;SDS011;30625;52.206;21.030;2023-03-04T05:28:30;35.35;;;15.20;;
44893;SDS011;30625;52.206;21.030;2023-03-04T05:30:57;32.60;;;14.68;;
44893;SDS011;30625;52.206;21.030;2023-03-04T05:33:23;34.35;;;15.82;;
44893;SDS011;30625;52.206;21.030;2023-03-04T05:35:48;30.30;;;15.15;;
44893;SDS011;30625;52.206;21.030;2023-03-04T05:38:15;31.67;;;15.50;;
44893;SDS011;30625;52.206;21.030;2023-03-04T05:40:43;32.10;;;14.23;;
44893;SDS011;30625;52.206;21.030;2023-03-04T05:43:09;35.03;;;15.57;;
44893;SDS011;30625;52.206;21.030;2023-03-04T05:45:36;31.63;;;14.23;;
44893;SDS011;30625;52.206;21.030;2023-03-04T05:48:02;29.48;;;14.73;;
44893;SDS011;30625;52.206;21.030;2023-03-04T05:50:28;28.50;;;13.75;;
44893;SDS011;30625;52.206;21.030;2023-03-04T05:52:54;31.67;;;14.13;;
44893;SDS011;30625;52.206;21.030;2023-03-04T05:55:19;29.27;;;13.70;;
44893;SDS011;30625;52.206;21.030;2023-03-04T05:57:45;30.30;;;14.77;;
44893;SDS011;30625;52.206;21.030;2023-03-04T06:00:11;29.15;;;13.45;;
44893;SDS011;30625;52.206;21.030;2023-03-04T06:02:39;32.20;;;13.90;;
44893;SDS011;30625;52.206;21.030;2023-03-04T06:05:05;29.77;;;11.30;;
44893;SDS011;30625;52.206;21.030;2023-03-04T06:09:57;26.40;;;12.68;;
44893;SDS011;30625;52.206;21.030;2023-03-04T06:12:22;26.90;;;12.95;;
44893;SDS011;30625;52.206;21.030;2023-03-04T06:14:48;28.48;;;13.55;;
44893;SDS011;30625;52.206;21.030;2023-03-04T06:17:14;23.63;;;9.10;;
44893;SDS011;30625;52.206;21.030;2023-03-04T06:19:40;28.33;;;12.95;;
44893;SDS011;30625;52.206;21.030;2023-03-04T06:22:06;30.67;;;14.55;;
44893;SDS011;30625;52.206;21.030;2023-03-04T06:24:33;30.85;;;14.32;;
44893;SDS011;30625;52.206;21.030;2023-03-04T06:26:58;33.90;;;14.57;;
44893;SDS011;30625;52.206;21.030;2023-03-04T06:29:24;31.52;;;13.43;;
44893;SDS011;30625;52.206;21.030;2023-03-04T06:31:50;29.38;;;13.70;;
44893;SDS011;30625;52.206;21.030;2023-03-04T06:34:15;30.77;;;14.13;;
44893;SDS011;30625;52.206;21.030;2023-03-04T06:36:41;29.25;;;13.98;;
44893;SDS011;30625;52.206;21.030;2023-03-04T06:39:07;30.23;;;14.73;;
44893;SDS011;30625;52.206;21.030;2023-03-04T06:41:33;27.15;;;12.57;;
44893;SDS011;30625;52.206;21.030;2023-03-04T06:43:59;32.88;;;15.20;;
44893;SDS011;30625;52.206;21.030;2023-03-04T06:46:25;31.45;;;14.60;;
44893;SDS011;30625;52.206;21.030;2023-03-04T06:48:51;29.92;;;13.38;;
44893;SDS011;30625;52.206;21.030;2023-03-04T06:51:17;28.88;;;14.68;;
44893;SDS011;30625;52.206;21.030;2023-03-04T06:53:43;30.05;;;14.75;;
44893;SDS011;30625;52.206;21.030;2023-03-04T06:56:10;27.08;;;13.02;;
44893;SDS011;30625;52.206;21.030;2023-03-04T06:58:40;31.10;;;13.80;;
44893;SDS011;30625;52.206;21.030;2023-03-04T07:03:35;33.78;;;14.27;;
44893;SDS011;30625;52.206;21.030;2023-03-04T07:06:01;22.65;;;12.18;;
44893;SDS011;30625;52.206;21.030;2023-03-04T07:08:26;32.83;;;14.50;;
44893;SDS011;30625;52.206;21.030;2023-03-04T07:10:52;30.40;;;12.85;;
44893;SDS011;30625;52.206;21.030;2023-03-04T07:13:17;31.30;;;13.82;;
44893;SDS011;30625;52.206;21.030;2023-03-04T07:15:43;29.63;;;14.35;;
44893;SDS011;30625;52.206;21.030;2023-03-04T07:18:09;28.42;;;14.18;;
44893;SDS011;30625;52.206;21.030;2023-03-04T07:20:35;34.50;;;14.77;;
44893;SDS011;30625;52.206;21.030;2023-03-04T07:23:01;28.60;;;13.45;;
44893;SDS011;30625;52.206;21.030;2023-03-04T07:25:26;32.55;;;14.57;;
44893;SDS011;30625;52.206;21.030;2023-03-04T07:27:52;25.60;;;13.25;;
44893;SDS011;30625;52.206;21.030;2023-03-04T07:30:18;27.15;;;12.43;;
44893;SDS011;30625;52.206;21.030;2023-03-04T07:32:43;26.73;;;12.23;;
44893;SDS011;30625;52.206;21.030;2023-03-04T07:35:09;29.55;;;12.15;;
44893;SDS011;30625;52.206;21.030;2023-03-04T07:37:35;30.98;;;14.13;;
44893;SDS011;30625;52.206;21.030;2023-03-04T07:40:00;27.05;;;12.57;;
44893;SDS011;30625;52.206;21.030;2023-03-04T07:42:26;28.23;;;12.32;;
44893;SDS011;30625;52.206;21.030;2023-03-04T07:44:52;27.25;;;13.02;;
44893;SDS011;30625;52.206;21.030;2023-03-04T07:47:19;26.67;;;11.68;;
44893;SDS011;30625;52.206;21.030;2023-03-04T07:49:45;26.83;;;11.68;;
44893;SDS011;30625;52.206;21.030;2023-03-04T07:52:10;30.38;;;12.93;;
44893;SDS011;30625;52.206;21.030;2023-03-04T07:54:38;24.85;;;12.80;;
44893;SDS011;30625;52.206;21.030;2023-03-04T07:57:04;26.95;;;11.77;;
44893;SDS011;30625;52.206;21.030;2023-03-04T07:59:29;27.67;;;11.73;;
44893;SDS011;30625;52.206;21.030;2023-03-04T08:01:55;25.85;;;12.05;;
44893;SDS011;30625;52.206;21.030;2023-03-04T08:04:21;26.77;;;12.52;;
44893;SDS011;30625;52.206;21.030;2023-03-04T08:06:47;27.23;;;13.18;;
44893;SDS011;30625;52.206;21.030;2023-03-04T08:09:13;27.83;;;11.95;;
44893;SDS011;30625;52.206;21.030;2023-03-04T08:11:38;24.10;;;11.98;;
44893;SDS011;30625;52.206;21.030;2023-03-04T08:14:05;23.17;;;11.40;;
44893;SDS011;30625;52.206;21.030;2023-03-04T08:16:30;23.30;;;10.85;;
44893;SDS011;30625;52.206;21.030;2023-03-04T08:18:57;23.83;;;11.73;;
44893;SDS011;30625;52.206;21.030;2023-03-04T08:21:25;27.10;;;12.13;;
44893;SDS011;30625;52.206;21.030;2023-03-04T08:23:52;25.75;;;12.05;;
44893;SDS011;30625;52.206;21.030;2023-03-04T08:26:20;22.58;;;11.75;;
44893;SDS011;30625;52.206;21.030;2023-03-04T08:28:51;22.95;;;11.27;;
44893;SDS011;30625;52.206;21.030;2023-03-04T08:31:17;25.75;;;12.43;;
44893;SDS011;30625;52.206;21.030;2023-03-04T08:33:43;25.67;;;11.20;;
44893;SDS011;30625;52.206;21.030;2023-03-04T08:38:35;30.90;;;11.40;;
44893;SDS011;30625;52.206;21.030;2023-03-04T08:41:00;27.15;;;11.25;;
44893;SDS011;30625;52.206;21.030;2023-03-04T08:43:27;25.75;;;10.88;;
44893;SDS011;30625;52.206;21.030;2023-03-04T08:45:54;25.13;;;12.07;;
44893;SDS011;30625;52.206;21.030;2023-03-04T08:48:20;28.73;;;11.88;;
44893;SDS011;30625;52.206;21.030;2023-03-04T08:50:47;25.58;;;11.18;;
44893;SDS011;30625;52.206;21.030;2023-03-04T08:53:14;26.02;;;10.85;;
44893;SDS011;30625;52.206;21.030;2023-03-04T08:55:41;27.63;;;11.45;;
44893;SDS011;30625;52.206;21.030;2023-03-04T08:58:08;22.67;;;11.23;;
44893;SDS011;30625;52.206;21.030;2023-03-04T09:03:00;22.70;;;10.10;;
44893;SDS011;30625;52.206;21.030;2023-03-04T09:05:28;26.02;;;10.98;;
44893;SDS011;30625;52.206;21.030;2023-03-04T09:07:55;24.65;;;10.55;;
44893;SDS011;30625;52.206;21.030;2023-03-04T09:10:21;25.73;;;10.45;;
44893;SDS011;30625;52.206;21.030;2023-03-04T09:12:47;28.92;;;10.93;;
44893;SDS011;30625;52.206;21.030;2023-03-04T09:15:12;25.35;;;10.50;;
44893;SDS011;30625;52.206;21.030;2023-03-04T09:17:39;29.98;;;12.45;;
44893;SDS011;30625;52.206;21.030;2023-03-04T09:20:06;23.08;;;10.63;;
44893;SDS011;30625;52.206;21.030;2023-03-04T09:22:34;22.48;;;10.52;;
44893;SDS011;30625;52.206;21.030;2023-03-04T09:27:25;24.33;;;10.57;;
44893;SDS011;30625;52.206;21.030;2023-03-04T09:29:51;23.92;;;9.45;;
44893;SDS011;30625;52.206;21.030;2023-03-04T09:32:17;25.02;;;10.70;;
44893;SDS011;30625;52.206;21.030;2023-03-04T09:34:42;29.98;;;11.23;;
44893;SDS011;30625;52.206;21.030;2023-03-04T09:37:08;24.65;;;11.90;;
44893;SDS011;30625;52.206;21.030;2023-03-04T09:39:34;24.98;;;9.50;;
44893;SDS011;30625;52.206;21.030;2023-03-04T09:41:59;23.98;;;9.68;;
44893;SDS011;30625;52.206;21.030;2023-03-04T09:44:38;22.27;;;10.13;;
44893;SDS011;30625;52.206;21.030;2023-03-04T09:47:09;28.05;;;10.30;;
44893;SDS011;30625;52.206;21.030;2023-03-04T09:49:38;33.90;;;10.93;;
44893;SDS011;30625;52.206;21.030;2023-03-04T09:52:42;24.17;;;11.10;;
44893;SDS011;30625;52.206;21.030;2023-03-04T09:55:25;20.73;;;9.18;;
44893;SDS011;30625;52.206;21.030;2023-03-04T10:00:57;20.35;;;9.35;;
44893;SDS011;30625;52.206;21.030;2023-03-04T10:03:32;24.30;;;9.38;;
44893;SDS011;30625;52.206;21.030;2023-03-04T10:06:10;20.88;;;9.13;;
44893;SDS011;30625;52.206;21.030;2023-03-04T10:08:51;23.45;;;9.90;;
44893;SDS011;30625;52.206;21.030;2023-03-04T10:11:26;23.45;;;9.70;;
44893;SDS011;30625;52.206;21.030;2023-03-04T10:13:55;25.88;;;9.45;;
44893;SDS011;30625;52.206;21.030;2023-03-04T10:16:28;22.15;;;8.82;;
44893;SDS011;30625;52.206;21.030;2023-03-04T10:19:01;25.05;;;10.00;;
44893;SDS011;30625;52.206;21.030;2023-03-04T10:21:54;21.75;;;9.50;;
44893;SDS011;30625;52.206;21.030;2023-03-04T10:24:20;22.33;;;10.07;;
44893;SDS011;30625;52.206;21.030;2023-03-04T10:26:52;22.17;;;10.23;;
44893;SDS011;30625;52.206;21.030;2023-03-04T10:29:26;26.67;;;10.20;;
44893;SDS011;30625;52.206;21.030;2023-03-04T10:31:54;22.88;;;9.85;;
44893;SDS011;30625;52.206;21.030;2023-03-04T10:34:20;22.35;;;9.65;;
44893;SDS011;30625;52.206;21.030;2023-03-04T10:36:53;24.33;;;10.88;;
44893;SDS011;30625;52.206;21.030;2023-03-04T10:39:28;22.83;;;9.68;;
44893;SDS011;30625;52.206;21.030;2023-03-04T10:44:40;30.73;;;10.77;;
44893;SDS011;30625;52.206;21.030;2023-03-04T10:47:08;26.23;;;9.10;;
44893;SDS011;30625;52.206;21.030;2023-03-04T10:49:38;25.98;;;9.73;;
44893;SDS011;30625;52.206;21.030;2023-03-04T10:52:22;17.88;;;8.73;;
44893;SDS011;30625;52.206;21.030;2023-03-04T10:57:39;26.05;;;10.00;;
44893;SDS011;30625;52.206;21.030;2023-03-04T11:02:42;24.30;;;10.25;;
44893;SDS011;30625;52.206;21.030;2023-03-04T11:05:22;22.88;;;9.98;;
44893;SDS011;30625;52.206;21.030;2023-03-04T11:12:49;27.48;;;11.15;;
44893;SDS011;30625;52.206;21.030;2023-03-04T11:15:17;24.58;;;10.60;;
44893;SDS011;30625;52.206;21.030;2023-03-04T11:17:47;27.35;;;10.18;;
44893;SDS011;30625;52.206;21.030;2023-03-04T11:22:56;28.52;;;11.43;;
44893;SDS011;30625;52.206;21.030;2023-03-04T11:25:35;36.72;;;11.50;;
44893;SDS011;30625;52.206;21.030;2023-03-04T11:28:08;25.55;;;10.00;;
44893;SDS011;30625;52.206;21.030;2023-03-04T11:31:03;25.38;;;9.70;;
44893;SDS011;30625;52.206;21.030;2023-03-04T11:36:34;26.65;;;10.60;;
44893;SDS011;30625;52.206;21.030;2023-03-04T11:39:48;28.08;;;10.80;;
44893;SDS011;30625;52.206;21.030;2023-03-04T11:45:14;23.25;;;9.77;;
44893;SDS011;30625;52.206;21.030;2023-03-04T11:55:39;31.17;;;9.85;;
44893;SDS011;30625;52.206;21.030;2023-03-04T11:58:17;29.45;;;10.13;;
44893;SDS011;30625;52.206;21.030;2023-03-04T12:00:56;25.50;;;10.32;;
44893;SDS011;30625;52.206;21.030;2023-03-04T12:06:17;23.13;;;9.48;;
44893;SDS011;30625;52.206;21.030;2023-03-04T12:26:01;22.85;;;10.95;;
44893;SDS011;30625;52.206;21.030;2023-03-04T12:29:01;32.20;;;11.88;;
44893;SDS011;30625;52.206;21.030;2023-03-04T12:32:10;26.33;;;10.88;;
44893;SDS011;30625;52.206;21.030;2023-03-04T12:43:00;20.70;;;10.70;;
44893;SDS011;30625;52.206;21.030;2023-03-04T12:48:51;22.45;;;10.43;;
44893;SDS011;30625;52.206;21.030;2023-03-04T12:54:30;22.30;;;9.52;;
44893;SDS011;30625;52.206;21.030;2023-03-04T12:57:27;23.63;;;9.60;;
44893;SDS011;30625;52.206;21.030;2023-03-04T13:08:30;21.58;;;7.95;;
44893;SDS011;30625;52.206;21.030;2023-03-04T13:13:59;18.65;;;8.48;;
44893;SDS011;30625;52.206;21.030;2023-03-04T13:22:26;21.10;;;9.05;;
44893;SDS011;30625;52.206;21.030;2023-03-04T13:43:45;17.80;;;7.05;;
44893;SDS011;30625;52.206;21.030;2023-03-04T13:51:30;13.10;;;4.60;;
44893;SDS011;30625;52.206;21.030;2023-03-04T13:56:28;5.00;;;1.90;;
44893;SDS011;30625;52.206;21.030;2023-03-04T14:01:30;11.57;;;2.50;;
44893;SDS011;30625;52.206;21.030;2023-03-04T14:03:58;8.63;;;2.45;;
44893;SDS011;30625;52.206;21.030;2023-03-04T14:06:26;8.43;;;3.15;;
44893;SDS011;30625;52.206;21.030;2023-03-04T14:08:55;9.80;;;2.63;;
44893;SDS011;30625;52.206;21.030;2023-03-04T14:13:57;5.20;;;2.00;;
44893;SDS011;30625;52.206;21.030;2023-03-04T14:16:27;6.95;;;2.40;;
44893;SDS011;30625;52.206;21.030;2023-03-04T14:19:03;10.70;;;3.65;;
44893;SDS011;30625;52.206;21.030;2023-03-04T14:21:31;11.93;;;2.60;;
44893;SDS011;30625;52.206;21.030;2023-03-04T14:24:01;9.20;;;3.40;;
44893;SDS011;30625;52.206;21.030;2023-03-04T14:26:36;9.77;;;2.85;;
44893;SDS011;30625;52.206;21.030;2023-03-04T14:29:17;10.02;;;2.83;;
44893;SDS011;30625;52.206;21.030;2023-03-04T14:31:54;7.30;;;2.58;;
44893;SDS011;30625;52.206;21.030;2023-03-04T14:34:27;6.90;;;2.30;;
44893;SDS011;30625;52.206;21.030;2023-03-04T14:37:02;5.93;;;2.58;;
44893;SDS011;30625;52.206;21.030;2023-03-04T14:39:41;11.65;;;1.67;;
44893;SDS011;30625;52.206;21.030;2023-03-04T14:42:08;7.00;;;1.83;;
44893;SDS011;30625;52.206;21.030;2023-03-04T14:44:36;7.75;;;2.13;;
44893;SDS011;30625;52.206;21.030;2023-03-04T14:47:18;7.78;;;2.42;;
44893;SDS011;30625;52.206;21.030;2023-03-04T14:49:44;6.45;;;1.58;;
44893;SDS011;30625;52.206;21.030;2023-03-04T14:55:14;7.60;;;1.98;;
44893;SDS011;30625;52.206;21.030;2023-03-04T14:57:47;6.22;;;1.77;;
44893;SDS011;30625;52.206;21.030;2023-03-04T15:02:49;11.13;;;1.50;;
44893;SDS011;30625;52.206;21.030;2023-03-04T15:05:19;4.38;;;1.42;;
44893;SDS011;30625;52.206;21.030;2023-03-04T15:08:00;9.48;;;1.63;;
44893;SDS011;30625;52.206;21.030;2023-03-04T15:10:29;7.47;;;1.60;;
44893;SDS011;30625;52.206;21.030;2023-03-04T15:12:58;5.25;;;2.03;;
44893;SDS011;30625;52.206;21.030;2023-03-04T15:15:37;9.13;;;2.33;;
44893;SDS011;30625;52.206;21.030;2023-03-04T15:23:27;3.95;;;1.00;;
44893;SDS011;30625;52.206;21.030;2023-03-04T15:26:01;4.88;;;0.98;;
44893;SDS011;30625;52.206;21.030;2023-03-04T15:28:35;5.10;;;1.10;;
44893;SDS011;30625;52.206;21.030;2023-03-04T15:31:02;4.72;;;1.05;;
44893;SDS011;30625;52.206;21.030;2023-03-04T15:33:38;3.40;;;0.70;;
44893;SDS011;30625;52.206;21.030;2023-03-04T15:36:04;3.75;;;0.70;;
44893;SDS011;30625;52.206;21.030;2023-03-04T15:38:30;7.25;;;1.10;;
44893;SDS011;30625;52.206;21.030;2023-03-04T15:40:56;4.18;;;1.27;;
44893;SDS011;30625;52.206;21.030;2023-03-04T15:43:23;5.35;;;0.90;;
44893;SDS011;30625;52.206;21.030;2023-03-04T15:48:16;5.82;;;0.85;;
44893;SDS011;30625;52.206;21.030;2023-03-04T15:50:47;5.53;;;0.70;;
44893;SDS011;30625;52.206;21.030;2023-03-04T15:53:25;5.07;;;1.23;;
44893;SDS011;30625;52.206;21.030;2023-03-04T15:55:54;5.78;;;0.90;;
44893;SDS011;30625;52.206;21.030;2023-03-04T15:58:20;7.55;;;1.30;;
44893;SDS011;30625;52.206;21.030;2023-03-04T16:00:46;4.82;;;1.23;;
44893;SDS011;30625;52.206;21.030;2023-03-04T16:03:15;9.90;;;1.67;;
44893;SDS011;30625;52.206;21.030;2023-03-04T16:05:43;4.90;;;1.80;;
44893;SDS011;30625;52.206;21.030;2023-03-04T16:08:11;6.75;;;1.30;;
44893;SDS011;30625;52.206;21.030;2023-03-04T16:10:39;6.65;;;1.27;;
44893;SDS011;30625;52.206;21.030;2023-03-04T16:15:36;4.13;;;1.13;;
44893;SDS011;30625;52.206;21.030;2023-03-04T16:18:02;5.13;;;1.10;;
44893;SDS011;30625;52.206;21.030;2023-03-04T16:20:28;7.18;;;1.15;;
44893;SDS011;30625;52.206;21.030;2023-03-04T16:22:58;5.53;;;1.13;;
44893;SDS011;30625;52.206;21.030;2023-03-04T16:25:26;4.28;;;1.13;;
44893;SDS011;30625;52.206;21.030;2023-03-04T16:27:53;5.70;;;1.00;;
44893;SDS011;30625;52.206;21.030;2023-03-04T16:30:21;4.75;;;0.98;;
44893;SDS011;30625;52.206;21.030;2023-03-04T16:32:48;4.45;;;0.75;;
44893;SDS011;30625;52.206;21.030;2023-03-04T16:35:15;2.55;;;0.75;;
44893;SDS011;30625;52.206;21.030;2023-03-04T16:37:42;5.10;;;1.00;;
44893;SDS011;30625;52.206;21.030;2023-03-04T16:40:10;5.32;;;0.88;;
44893;SDS011;30625;52.206;21.030;2023-03-04T16:42:38;4.05;;;0.77;;
44893;SDS011;30625;52.206;21.030;2023-03-04T16:45:04;4.20;;;0.88;;
44893;SDS011;30625;52.206;21.030;2023-03-04T16:47:51;3.80;;;0.80;;
44893;SDS011;30625;52.206;21.030;2023-03-04T16:50:19;7.70;;;1.00;;
44893;SDS011;30625;52.206;21.030;2023-03-04T16:52:48;6.05;;;1.60;;
44893;SDS011;30625;52.206;21.030;2023-03-04T16:57:42;5.22;;;0.98;;
44893;SDS011;30625;52.206;21.030;2023-03-04T17:00:08;3.45;;;1.10;;
44893;SDS011;30625;52.206;21.030;2023-03-04T17:02:34;7.35;;;1.17;;
44893;SDS011;30625;52.206;21.030;2023-03-04T17:05:00;2.75;;;0.70;;